Time;durP1;ratioP1;P1;durP2;ratioP2;P2;SDS_P1;SDS_P2;PMS_P1;PMS_P2;Temp;Humidity;BMP_temperature;BMP_pressure;BME280_temperature;BME280_humidity;BME280_pressure;Samples;Min_cycle;Max_cycle;Signal;HPM_P1;HPM_P2
2022/08/15 00:01:30;;;;;;;11.40;8.90;;;;;;;21.33;74.46;99072.91;109434;1273;22533;-68
2022/08/15 00:04:00;;;;;;;11.90;8.60;;;;;;;21.33;74.38;99074.05;109262;1274;139241;-68
2022/08/15 00:06:41;;;;;;;10.80;8.30;;;;;;;21.34;74.29;99074.80;106807;1274;22596;-69
2022/08/15 00:09:18;;;;;;;10.80;8.50;;;;;;;21.35;74.22;99073.00;105094;1274;26347;-69
2022/08/15 00:11:49;;;;;;;12.50;8.60;;;;;;;21.38;74.19;99075.48;109258;1274;138187;-70
2022/08/15 00:14:32;;;;;;;14.90;8.30;;;;;;;21.41;74.06;99072.56;109449;1274;22461;-69
2022/08/15 00:17:01;;;;;;;10.00;8.30;;;;;;;21.45;73.93;99071.63;109353;1272;139293;-69
2022/08/15 00:19:38;;;;;;;9.50;8.60;;;;;;;21.48;73.78;99066.28;109501;1273;22737;-68
2022/08/15 00:22:07;;;;;;;12.80;8.80;;;;;;;21.50;73.70;99067.05;109246;1274;138855;-68
2022/08/15 00:24:48;;;;;;;12.40;8.50;;;;;;;21.52;73.65;99067.42;109372;1274;22440;-68
2022/08/15 00:27:19;;;;;;;12.50;8.70;;;;;;;21.52;73.61;99071.40;109461;1273;22452;-68
2022/08/15 00:29:51;;;;;;;12.60;8.80;;;;;;;21.53;73.57;99067.38;109233;1274;138720;-68
2022/08/15 00:32:23;;;;;;;9.00;8.10;;;;;;;21.52;73.52;99069.48;109370;1274;22449;-68
2022/08/15 00:37:56;;;;;;;15.90;9.10;;;;;;;21.50;73.49;99067.20;104940;1274;24241;-68
2022/08/15 00:43:27;;;;;;;11.80;8.30;;;;;;;21.49;73.47;99062.91;105004;1274;25456;-68
2022/08/15 00:45:56;;;;;;;13.80;8.70;;;;;;;21.48;73.49;99067.78;104886;1274;138379;-67
2022/08/15 00:48:42;;;;;;;12.40;8.90;;;;;;;21.45;73.56;99065.14;104979;1275;22592;-67
2022/08/15 00:51:13;;;;;;;10.80;8.90;;;;;;;21.43;73.57;99063.95;104810;1275;24055;-68
2022/08/15 00:53:42;;;;;;;11.70;9.50;;;;;;;21.40;73.63;99063.21;109149;1274;138121;-68
2022/08/15 00:56:09;;;;;;;9.10;7.60;;;;;;;21.38;73.79;99055.98;109268;1274;22426;-68
2022/08/15 00:58:55;;;;;;;9.70;8.10;;;;;;;21.34;73.79;99051.52;109113;1274;138192;-68
2022/08/15 01:01:22;;;;;;;11.50;8.10;;;;;;;21.32;73.96;99051.36;109478;1273;22470;-68
2022/08/15 01:03:49;;;;;;;11.80;9.00;;;;;;;21.31;73.89;99048.55;109325;1274;139400;-68
2022/08/15 01:06:21;;;;;;;9.70;8.30;;;;;;;21.29;73.90;99042.61;109357;1274;22431;-68
2022/08/15 01:08:54;;;;;;;9.40;8.00;;;;;;;21.29;73.92;99042.98;109361;1274;22440;-69
2022/08/15 01:11:36;;;;;;;13.60;8.90;;;;;;;21.28;73.92;99042.56;109209;1274;138035;-69
2022/08/15 01:14:06;;;;;;;11.40;9.10;;;;;;;21.27;74.01;99038.50;109256;1274;22411;-68
2022/08/15 01:16:53;;;;;;;9.80;8.40;;;;;;;21.25;73.93;99036.75;109308;1273;138767;-69
2022/08/15 01:19:33;;;;;;;12.30;8.10;;;;;;;21.24;73.92;99034.64;109365;1274;22452;-69
2022/08/15 01:22:16;;;;;;;11.90;8.40;;;;;;;21.22;74.01;99037.36;109112;1274;139131;-68
2022/08/15 01:24:50;;;;;;;11.50;8.30;;;;;;;21.21;74.00;99039.85;109236;1274;22453;-69
2022/08/15 01:27:46;;;;;;;9.50;8.60;;;;;;;21.19;74.08;99033.62;109189;1274;139629;-67
2022/08/15 01:30:18;;;;;;;10.10;8.20;;;;;;;21.17;74.15;99031.72;109161;1274;23596;-68
2022/08/15 01:33:05;;;;;;;12.70;8.00;;;;;;;21.16;74.16;99033.48;109418;1274;22505;-69
2022/08/15 01:35:34;;;;;;;11.30;8.90;;;;;;;21.15;74.16;99037.08;109208;1274;138863;-69
2022/08/15 01:38:30;;;;;;;10.60;7.80;;;;;;;21.14;74.21;99034.52;109436;1274;22874;-69
2022/08/15 01:41:24;;;;;;;12.10;8.60;;;;;;;21.13;74.26;99031.33;109338;1273;140010;-69
2022/08/15 01:44:15;;;;;;;12.80;8.90;;;;;;;21.12;74.22;99034.69;109151;1275;22659;-69
2022/08/15 01:47:05;;;;;;;9.40;8.00;;;;;;;21.11;74.31;99030.30;109025;1274;140044;-69
2022/08/15 01:50:23;;;;;;;10.40;7.80;;;;;;;21.10;74.27;99031.84;109148;1274;22667;-69
2022/08/15 01:53:03;;;;;;;11.60;8.30;;;;;;;21.10;74.26;99032.29;109200;1274;139491;-69
2022/08/15 01:55:52;;;;;;;13.20;9.10;;;;;;;21.08;74.33;99031.29;109302;1274;23198;-69
2022/08/15 01:58:25;;;;;;;9.20;8.30;;;;;;;21.07;74.40;99030.05;109334;1274;138555;-68
2022/08/15 02:01:00;;;;;;;9.50;8.40;;;;;;;21.06;74.48;99026.92;109366;1274;23494;-68
2022/08/15 02:03:36;;;;;;;9.40;8.20;;;;;;;21.04;74.52;99024.64;109275;1274;22536;-69
2022/08/15 02:06:22;;;;;;;10.30;8.70;;;;;;;21.01;74.58;99022.64;109228;1274;22452;-68
2022/08/15 02:09:08;;;;;;;13.10;7.90;;;;;;;20.99;74.68;99018.99;109221;1274;22458;-69
2022/08/15 02:11:56;;;;;;;9.80;7.90;;;;;;;20.97;74.73;99021.13;109275;1274;139219;-69
2022/08/15 02:14:27;;;;;;;8.90;8.00;;;;;;;20.95;74.83;99016.94;109344;1274;22237;-69
2022/08/15 02:17:05;;;;;;;10.20;8.30;;;;;;;20.94;74.81;99017.46;109231;1274;139851;-69
2022/08/15 02:19:38;;;;;;;8.90;8.00;;;;;;;20.94;74.84;99015.77;109408;1274;22464;-69
2022/08/15 02:22:12;;;;;;;12.80;8.30;;;;;;;20.92;74.98;99019.84;109123;1274;138598;-69
2022/08/15 02:24:56;;;;;;;9.50;8.40;;;;;;;20.92;74.96;99022.35;109354;1274;22505;-69
2022/08/15 02:27:29;;;;;;;10.10;8.80;;;;;;;20.90;75.10;99025.64;109334;1274;22449;-69
2022/08/15 02:30:13;;;;;;;11.80;8.00;;;;;;;20.89;75.06;99025.84;109091;1274;139567;-69
2022/08/15 02:32:43;;;;;;;9.40;7.10;;;;;;;20.89;75.14;99026.33;109225;1274;23986;-70
2022/08/15 02:35:13;;;;;;;12.90;7.70;;;;;;;20.90;75.20;99024.75;109293;1274;137908;-69
2022/08/15 02:37:42;;;;;;;12.40;7.80;;;;;;;20.90;75.23;99023.90;109202;1274;22444;-70
2022/08/15 02:40:24;;;;;;;8.80;7.50;;;;;;;20.92;75.23;99020.46;109095;1275;138636;-69
2022/08/15 02:43:12;;;;;;;11.40;8.30;;;;;;;20.93;75.25;99023.27;109228;1274;22442;-69
2022/08/15 02:45:47;;;;;;;9.20;7.90;;;;;;;20.95;75.32;99022.61;108274;1274;139327;-68
2022/08/15 02:48:35;;;;;;;9.10;7.70;;;;;;;20.97;75.27;99023.08;105009;1276;24240;-68
2022/08/15 02:51:08;;;;;;;13.20;8.60;;;;;;;20.97;75.15;99029.77;105048;1273;22600;-68
2022/08/15 02:53:49;;;;;;;10.80;8.20;;;;;;;20.99;75.22;99025.88;104775;1274;139215;-68
2022/08/15 02:56:22;;;;;;;11.00;8.70;;;;;;;21.00;75.21;99029.55;105021;1274;23807;-68
2022/08/15 02:58:57;;;;;;;9.80;7.60;;;;;;;21.00;75.18;99032.74;104880;1276;139106;-68
2022/08/15 03:01:26;;;;;;;10.70;7.80;;;;;;;21.00;75.16;99030.89;105037;1274;22613;-68
2022/08/15 03:04:00;;;;;;;14.20;7.80;;;;;;;20.99;75.24;99025.64;105001;1274;138414;-68
2022/08/15 03:06:48;;;;;;;13.80;8.10;;;;;;;20.99;75.19;99032.46;104961;1275;22599;-68
2022/08/15 03:09:16;;;;;;;10.20;8.30;;;;;;;20.99;75.19;99027.86;104971;1275;22603;-68
2022/08/15 03:11:52;;;;;;;9.60;8.60;;;;;;;20.99;75.31;99026.92;104895;1274;139341;-67
2022/08/15 03:14:29;;;;;;;12.20;8.80;;;;;;;20.99;75.34;99025.78;105082;1274;24286;-67
2022/08/15 03:17:02;;;;;;;15.40;8.70;;;;;;;20.99;75.36;99025.71;109304;1274;138306;-67
2022/08/15 03:19:35;;;;;;;10.80;8.20;;;;;;;20.99;75.42;99025.16;109226;1274;23173;-67
2022/08/15 03:22:07;;;;;;;10.10;8.20;;;;;;;20.99;75.35;99022.09;109165;1274;139181;-67
2022/08/15 03:24:35;;;;;;;10.60;8.00;;;;;;;21.00;75.34;99020.39;109063;1276;22428;-68
2022/08/15 03:27:02;;;;;;;11.10;8.90;;;;;;;21.02;75.36;99019.58;109423;1274;22473;-68
2022/08/15 03:29:30;;;;;;;11.30;8.30;;;;;;;21.02;75.25;99020.60;109292;1274;138842;-68
2022/08/15 03:35:11;;;;;;;12.00;8.30;;;;;;;21.08;75.26;99021.00;101656;1310;546137;-68
2022/08/15 03:37:40;;;;;;;11.60;8.60;;;;;;;21.08;75.24;99020.17;108143;1289;22522;-68
2022/08/15 03:40:27;;;;;;;9.10;7.90;;;;;;;21.09;75.33;99024.02;108074;1289;137718;-68
2022/08/15 03:43:00;;;;;;;9.80;8.30;;;;;;;21.08;75.31;99022.39;107623;1290;23311;-69
2022/08/15 03:45:38;;;;;;;12.80;8.00;;;;;;;21.07;75.33;99023.71;107584;1283;138819;-67
2022/08/15 03:48:09;;;;;;;11.70;8.20;;;;;;;21.06;75.32;99021.62;103187;1280;1572337;-68
2022/08/15 03:50:52;;;;;;;10.60;8.50;;;;;;;21.04;75.42;99016.66;104782;1280;24269;-69
2022/08/15 03:53:25;;;;;;;;;;;;;;;21.03;75.54;99019.92;108950;1279;138077;-68
2022/08/15 03:55:56;;;;;;;13.10;8.30;;;;;;;21.01;75.63;99018.98;108884;1278;23316;-69
2022/08/15 03:58:25;;;;;;;11.70;8.10;;;;;;;20.98;75.75;99018.65;108913;1277;138289;-68
2022/08/15 04:01:07;;;;;;;12.20;8.50;;;;;;;20.97;75.88;99017.55;109030;1277;22425;-69
2022/08/15 04:03:39;;;;;;;12.30;8.90;;;;;;;20.95;75.93;99021.83;108772;1280;137992;-67
2022/08/15 04:06:10;;;;;;;15.40;9.10;;;;;;;20.92;76.05;99018.50;108868;1280;22447;-68
2022/08/15 04:08:41;;;;;;;9.20;8.00;;;;;;;20.92;76.11;99018.41;109057;1277;22529;-68
2022/08/15 04:11:30;;;;;;;11.70;8.60;;;;;;;20.92;76.15;99013.34;108805;1280;137817;-69
2022/08/15 04:14:06;;;;;;;15.40;8.30;;;;;;;20.92;76.24;99009.48;109237;1276;22446;-68
2022/08/15 04:16:57;;;;;;;9.20;8.30;;;;;;;20.91;76.35;99007.71;109154;1274;138001;-68
2022/08/15 04:19:32;;;;;;;10.30;8.50;;;;;;;20.90;76.51;99003.80;109229;1274;22520;-68
2022/08/15 04:22:18;;;;;;;11.90;8.60;;;;;;;20.90;76.62;99003.61;109158;1275;139039;-68
2022/08/15 04:25:09;;;;;;;12.80;8.90;;;;;;;20.88;76.86;99009.23;109210;1276;22417;-69
2022/08/15 04:27:48;;;;;;;10.40;9.40;;;;;;;20.86;76.96;99011.91;109295;1274;138252;-68
2022/08/15 04:30:22;;;;;;;15.30;9.00;;;;;;;20.82;77.21;99012.36;109328;1276;22416;-68
2022/08/15 04:32:50;;;;;;;11.60;9.40;;;;;;;20.80;77.45;99014.39;109245;1275;23409;-68
2022/08/15 04:35:34;;;;;;;10.50;8.80;;;;;;;20.76;77.54;99017.05;109049;1276;138786;-68
2022/08/15 04:38:01;;;;;;;12.80;8.70;;;;;;;20.74;77.87;99008.82;109080;1276;22458;-68
2022/08/15 04:40:28;;;;;;;10.40;9.20;;;;;;;20.74;77.99;99006.99;108776;1276;138817;-68
2022/08/15 04:43:17;;;;;;;12.20;9.10;;;;;;;20.72;78.02;99002.58;109158;1276;23689;-69
2022/08/15 04:45:44;;;;;;;12.50;9.20;;;;;;;20.73;78.09;99001.56;109054;1276;138536;-68
2022/08/15 04:48:14;;;;;;;9.70;8.70;;;;;;;20.74;78.16;99003.41;109102;1277;23343;-69
2022/08/15 04:50:49;;;;;;;10.40;8.80;;;;;;;20.75;78.14;99002.63;109187;1277;23403;-69
2022/08/15 04:53:20;;;;;;;9.70;8.70;;;;;;;20.79;78.11;99009.05;109067;1277;139354;-68
2022/08/15 04:55:56;;;;;;;11.80;8.70;;;;;;;20.83;77.99;99007.30;109315;1275;22459;-69
2022/08/15 04:58:27;;;;;;;9.20;8.30;;;;;;;20.88;77.77;99010.73;109146;1276;137794;-69
2022/08/15 05:01:16;;;;;;;15.10;9.30;;;;;;;20.93;77.73;99010.52;109158;1276;22415;-68
2022/08/15 05:03:51;;;;;;;11.70;8.40;;;;;;;20.97;77.60;99004.89;109051;1276;138206;-68
2022/08/15 05:06:23;;;;;;;11.40;8.90;;;;;;;21.01;77.43;99004.19;109155;1277;22447;-69
2022/08/15 05:09:00;;;;;;;11.20;8.40;;;;;;;21.05;77.12;99004.83;109130;1277;22470;-69
2022/08/15 05:11:29;;;;;;;11.20;8.50;;;;;;;21.11;76.87;98998.68;109134;1277;138324;-69
2022/08/15 05:14:16;;;;;;;11.40;8.70;;;;;;;21.16;76.55;98997.01;109102;1277;22455;-68
2022/08/15 05:17:03;;;;;;;9.70;8.10;;;;;;;21.22;76.33;98996.10;108989;1278;138896;-69
2022/08/15 05:19:33;;;;;;;9.30;8.10;;;;;;;21.26;75.93;98994.20;109317;1276;22560;-68
2022/08/15 05:22:03;;;;;;;14.50;8.40;;;;;;;21.30;75.90;98992.05;109018;1274;137844;-68
2022/08/15 05:24:31;;;;;;;9.50;8.50;;;;;;;21.33;75.80;98993.42;109053;1274;22477;-69
2022/08/15 05:26:58;;;;;;;10.10;8.80;;;;;;;21.36;75.73;98989.96;109106;1276;22436;-68
2022/08/15 05:29:29;;;;;;;11.80;9.30;;;;;;;21.38;75.19;98990.28;109011;1274;138372;-67
2022/08/15 05:31:56;;;;;;;14.70;8.60;;;;;;;21.42;75.14;98988.77;109202;1276;22446;-68
2022/08/15 05:34:24;;;;;;;10.60;8.10;;;;;;;21.50;75.03;98983.48;109045;1276;139157;-68
2022/08/15 05:37:10;;;;;;;10.60;7.60;;;;;;;21.59;74.06;98976.92;109243;1277;22381;-69
2022/08/15 05:39:37;;;;;;;11.90;7.90;;;;;;;21.69;73.14;98978.27;109139;1275;22381;-68
2022/08/15 05:42:24;;;;;;;20.30;7.90;;;;;;;21.79;71.57;98977.74;109182;1277;22306;-69
2022/08/15 05:45:08;;;;;;;12.50;7.10;;;;;;;21.93;70.78;98976.30;109160;1276;23301;-69
2022/08/15 05:48:07;;;;;;;8.80;7.90;;;;;;;22.09;70.34;98975.49;109072;1276;138645;-69
2022/08/15 05:50:54;;;;;;;9.70;7.80;;;;;;;22.30;70.29;98977.36;109302;1276;22280;-68
2022/08/15 05:53:37;;;;;;;10.20;7.60;;;;;;;22.43;69.83;98978.11;109044;1277;137869;-69
2022/08/15 05:56:13;;;;;;;12.90;8.60;;;;;;;22.48;69.32;98980.02;108987;1275;22446;-68
2022/08/15 05:58:53;;;;;;;10.20;7.80;;;;;;;22.49;68.87;98976.08;109074;1277;137860;-69
2022/08/15 06:01:29;;;;;;;8.70;7.80;;;;;;;22.47;69.08;98973.29;109090;1276;23016;-68
2022/08/15 06:04:07;;;;;;;8.90;8.10;;;;;;;22.45;68.91;98972.42;109178;1277;137716;-68
2022/08/15 06:06:38;;;;;;;11.60;8.00;;;;;;;22.44;68.96;98972.23;109147;1275;22443;-69
2022/08/15 06:09:34;;;;;;;13.10;8.00;;;;;;;22.43;68.78;98969.92;109136;1276;22542;-68
2022/08/15 06:12:17;;;;;;;13.00;8.70;;;;;;;22.44;68.50;98967.88;109123;1274;22697;-68
2022/08/15 06:14:54;;;;;;;11.00;7.70;;;;;;;22.44;68.45;98962.25;109080;1275;22453;-68
2022/08/15 06:17:43;;;;;;;9.90;7.40;;;;;;;22.43;68.46;98961.77;108980;1276;139170;-68
2022/08/15 06:20:12;;;;;;;11.00;8.50;;;;;;;22.45;68.39;98967.51;109148;1277;22451;-68
2022/08/15 06:23:08;;;;;;;10.20;8.10;;;;;;;22.44;67.66;98966.30;108827;1277;139096;-69
2022/08/15 06:25:43;;;;;;;15.20;7.70;;;;;;;22.45;67.72;98968.54;109112;1276;22432;-69
2022/08/15 06:28:25;;;;;;;17.30;8.60;;;;;;;22.47;67.70;98968.61;109123;1276;141338;-69
2022/08/15 06:31:33;;;;;;;9.60;7.80;;;;;;;22.50;67.93;98966.82;108628;1275;22633;-69
2022/08/15 06:34:36;;;;;;;9.40;7.70;;;;;;;22.56;68.46;98973.39;104940;1277;139145;-69
2022/08/15 06:37:27;;;;;;;11.20;8.30;;;;;;;22.63;68.10;98978.14;104545;1282;22973;-68
2022/08/15 06:40:20;;;;;;;10.60;8.70;;;;;;;22.71;67.46;98989.02;104432;1280;138298;-68
2022/08/15 06:42:55;;;;;;;12.70;8.40;;;;;;;22.80;67.19;98984.71;104481;1280;22669;-68
2022/08/15 06:45:54;;;;;;;14.40;8.20;;;;;;;22.85;66.44;98974.45;104204;1283;138371;-68
2022/08/15 06:48:23;;;;;;;13.00;7.80;;;;;;;22.87;66.40;98976.90;104156;1283;25403;-69
2022/08/15 06:51:11;;;;;;;11.00;7.90;;;;;;;22.88;66.55;98976.45;104348;1280;22721;-68
2022/08/15 06:53:54;;;;;;;9.60;7.60;;;;;;;22.86;66.49;98977.74;104450;1280;138209;-69
2022/08/15 06:56:31;;;;;;;8.80;7.80;;;;;;;22.84;66.75;98973.30;104548;1280;26052;-68
2022/08/15 06:59:22;;;;;;;17.90;7.50;;;;;;;22.80;66.31;98969.14;104281;1280;139231;-68
2022/08/15 07:02:30;;;;;;;11.10;8.20;;;;;;;22.77;66.58;98971.30;108755;1280;22629;-70
2022/08/15 07:05:22;;;;;;;10.90;7.60;;;;;;;22.75;66.66;98972.86;108627;1281;139479;-69
2022/08/15 07:08:11;;;;;;;12.10;8.70;;;;;;;22.74;66.86;98980.77;108636;1280;23487;-69
2022/08/15 07:10:45;;;;;;;10.80;7.90;;;;;;;22.73;66.57;98977.41;108498;1280;138590;-69
2022/08/15 07:13:24;;;;;;;11.90;8.90;;;;;;;22.73;66.14;98982.64;108599;1277;22515;-70
2022/08/15 07:15:57;;;;;;;10.50;8.20;;;;;;;22.72;66.57;98985.33;109253;1275;140379;-69
2022/08/15 07:18:24;;;;;;;9.20;7.90;;;;;;;22.71;67.05;98991.64;109098;1274;22512;-69
2022/08/15 07:21:07;;;;;;;12.80;8.10;;;;;;;22.69;67.44;98991.96;109279;1274;22443;-69
2022/08/15 07:24:01;;;;;;;14.20;8.10;;;;;;;22.66;67.39;98999.10;109122;1274;138136;-68
2022/08/15 07:27:04;;;;;;;13.70;8.60;;;;;;;22.62;67.98;98996.05;109339;1275;22461;-68
2022/08/15 07:29:38;;;;;;;11.70;8.30;;;;;;;22.59;68.62;98997.70;109143;1274;139909;-68
2022/08/15 07:32:11;;;;;;;11.20;7.90;;;;;;;22.58;68.86;99002.73;109206;1275;22456;-69
2022/08/15 07:35:15;;;;;;;14.30;9.00;;;;;;;22.58;69.04;98999.98;109168;1274;139073;-68
2022/08/15 07:37:51;;;;;;;10.20;7.80;;;;;;;22.59;68.79;99002.06;109327;1274;22615;-69
2022/08/15 07:40:22;;;;;;;;;;;;;;;22.62;68.44;99005.23;109156;1274;140131;-69
2022/08/15 07:42:57;;;;;;;8.70;7.70;;;;;;;22.66;68.16;99005.75;109230;1274;22492;-69
2022/08/15 07:45:26;;;;;;;19.60;9.00;;;;;;;22.70;68.01;99006.36;109220;1275;22427;-69
2022/08/15 07:48:03;;;;;;;11.30;8.60;;;;;;;22.77;67.40;99005.42;109140;1274;137941;-69
2022/08/15 07:50:41;;;;;;;10.50;8.50;;;;;;;22.88;67.55;99001.38;109138;1275;22431;-69
2022/08/15 07:53:13;;;;;;;14.00;7.10;;;;;;;23.04;67.23;98997.30;108962;1274;138907;-69
2022/08/15 07:56:16;;;;;;;11.90;7.80;;;;;;;23.20;66.96;99000.25;109244;1276;22388;-69
2022/08/15 07:59:23;;;;;;;16.00;8.50;;;;;;;23.39;65.50;98995.52;109167;1275;138287;-69
2022/08/15 08:02:20;;;;;;;22.30;13.10;;;;;;;23.51;65.14;98999.83;109244;1276;22609;-69
2022/08/15 08:05:04;;;;;;;12.40;8.30;;;;;;;23.63;64.86;99002.14;109223;1276;138594;-69
2022/08/15 08:07:32;;;;;;;14.00;7.50;;;;;;;23.71;64.93;99004.48;109347;1275;22513;-69
2022/08/15 08:10:23;;;;;;;14.50;8.10;;;;;;;23.76;64.07;99003.21;109197;1274;139819;-69
2022/08/15 08:13:12;;;;;;;10.90;7.60;;;;;;;23.78;63.88;99000.73;109221;1275;23163;-69
2022/08/15 08:15:53;;;;;;;12.30;8.20;;;;;;;23.80;64.09;99003.00;109180;1274;138286;-69
2022/08/15 08:18:48;;;;;;;8.00;7.20;;;;;;;23.82;64.41;99000.56;109241;1275;22583;-69
2022/08/15 08:21:17;;;;;;;11.80;8.20;;;;;;;23.87;64.67;99003.80;109208;1276;22565;-69
2022/08/15 08:24:01;;;;;;;10.90;8.20;;;;;;;23.95;64.13;98999.70;109121;1275;139293;-69
2022/08/15 08:26:52;;;;;;;13.80;7.50;;;;;;;24.05;63.11;99004.33;109181;1276;23231;-69
2022/08/15 08:29:31;;;;;;;12.20;8.50;;;;;;;24.13;63.30;99005.80;109001;1275;137687;-69
2022/08/15 08:32:36;;;;;;;8.30;6.90;;;;;;;24.21;63.33;99006.57;109199;1277;22442;-69
2022/08/15 08:35:28;;;;;;;10.80;8.00;;;;;;;24.30;63.07;99001.95;109070;1276;138470;-69
2022/08/15 08:38:15;;;;;;;15.20;7.80;;;;;;;24.35;62.32;99002.63;109203;1276;23846;-70
2022/08/15 08:41:33;;;;;;;14.40;7.90;;;;;;;24.36;61.62;98991.90;109108;1276;138922;-70
2022/08/15 08:44:34;;;;;;;14.30;8.30;;;;;;;24.33;61.30;98978.65;109297;1276;23632;-70
2022/08/15 08:47:33;;;;;;;12.70;8.80;;;;;;;24.32;61.41;98986.32;109223;1275;138355;-70
2022/08/15 08:50:19;;;;;;;11.90;8.80;;;;;;;24.34;61.76;98989.55;108926;1280;22501;-70
2022/08/15 08:53:28;;;;;;;14.70;8.40;;;;;;;24.39;62.43;98998.35;108738;1280;139040;-70
2022/08/15 08:56:21;;;;;;;9.80;7.50;;;;;;;24.46;60.72;98991.73;108865;1280;23336;-70
2022/08/15 08:59:09;;;;;;;14.50;7.70;;;;;;;24.47;60.23;98997.48;108774;1279;137439;-69
2022/08/15 09:01:37;;;;;;;14.80;7.90;;;;;;;24.46;59.96;98993.25;108861;1278;22392;-70
2022/08/15 09:04:11;;;;;;;13.20;7.50;;;;;;;24.46;60.45;98991.83;108751;1280;137843;-70
2022/08/15 09:06:40;;;;;;;13.70;7.50;;;;;;;24.48;60.07;98994.33;108973;1280;22258;-69
2022/08/15 09:09:19;;;;;;;15.40;7.50;;;;;;;24.48;60.35;98995.84;108974;1280;22478;-70
2022/08/15 09:11:54;;;;;;;8.40;7.00;;;;;;;24.48;60.17;99002.52;108938;1277;139862;-70
2022/08/15 09:14:34;;;;;;;10.70;7.20;;;;;;;24.46;60.24;99004.80;108857;1280;22294;-67
2022/08/15 09:17:21;;;;;;;15.10;6.80;;;;;;;24.48;60.85;99006.81;108872;1280;139425;-68
2022/08/15 09:20:10;;;;;;;8.30;7.40;;;;;;;24.49;60.45;99012.98;108800;1280;23177;-68
2022/08/15 09:22:49;;;;;;;11.20;8.20;;;;;;;24.47;60.43;99009.83;108682;1280;139255;-67
2022/08/15 09:25:20;;;;;;;11.00;7.70;;;;;;;24.44;60.83;99008.46;108618;1280;22599;-70
2022/08/15 09:28:22;;;;;;;12.70;7.60;;;;;;;24.41;61.28;99010.63;104818;1277;138735;-69
2022/08/15 09:31:06;;;;;;;16.30;7.80;;;;;;;24.38;60.96;99010.81;105041;1276;24196;-69
2022/08/15 09:33:45;;;;;;;9.40;7.00;;;;;;;24.36;61.12;99009.18;109185;1276;23254;-68
2022/08/15 09:36:34;;;;;;;9.40;7.30;;;;;;;24.36;61.33;99004.64;109358;1274;22499;-68
2022/08/15 09:39:12;;;;;;;18.90;7.30;;;;;;;24.37;61.33;98999.59;109316;1275;23278;-68
2022/08/15 09:41:55;;;;;;;9.00;7.10;;;;;;;24.41;60.92;99002.13;109202;1275;139507;-68
2022/08/15 09:44:35;;;;;;;12.20;6.80;;;;;;;24.46;60.21;99005.25;109231;1274;22485;-68
2022/08/15 09:47:17;;;;;;;12.90;7.50;;;;;;;24.48;60.02;99001.27;109191;1274;137391;-68
2022/08/15 09:49:48;;;;;;;8.70;6.60;;;;;;;24.50;59.53;98993.91;109341;1275;22446;-68
2022/08/15 09:52:34;;;;;;;16.00;7.40;;;;;;;24.51;59.72;98986.70;109245;1274;138280;-68
2022/08/15 09:55:41;;;;;;;9.10;6.70;;;;;;;24.52;59.42;98984.48;109384;1274;23195;-68
2022/08/15 09:58:27;;;;;;;12.00;6.60;;;;;;;24.52;60.17;98975.57;109080;1276;137663;-69
2022/08/15 10:01:07;;;;;;;10.00;6.90;;;;;;;24.53;60.46;98966.02;109159;1277;22547;-69
2022/08/15 10:03:43;;;;;;;8.10;6.50;;;;;;;24.52;60.62;98962.29;109321;1274;22519;-69
2022/08/15 10:06:16;;;;;;;11.20;7.40;;;;;;;24.51;60.57;98962.43;109319;1274;22266;-68
2022/08/15 10:09:50;;;;;;;11.80;7.00;;;;;;;24.51;60.85;98969.02;109280;1274;23512;-68
2022/08/15 10:12:17;;;;;;;11.80;7.90;;;;;;;24.50;60.87;98978.79;108557;1282;22495;-68
2022/08/15 10:14:47;;;;;;;8.40;7.60;;;;;;;24.48;60.52;98976.04;108551;1282;22688;-68
2022/08/15 10:17:33;;;;;;;11.50;6.80;;;;;;;24.45;60.83;98969.84;108564;1281;137892;-68
2022/08/15 10:20:16;;;;;;;8.70;7.00;;;;;;;24.42;60.91;98966.50;108803;1280;22442;-68
2022/08/15 10:23:01;;;;;;;13.00;7.20;;;;;;;24.38;61.02;98959.24;108715;1281;138215;-68
2022/08/15 10:25:40;;;;;;;16.70;7.50;;;;;;;24.33;61.36;98946.41;108707;1281;22510;-68
2022/08/15 10:28:13;;;;;;;10.10;6.90;;;;;;;24.27;61.60;98942.30;108599;1281;138051;-68
2022/08/15 10:31:01;;;;;;;10.10;7.20;;;;;;;24.22;62.22;98942.73;108777;1278;22581;-68
2022/08/15 10:33:30;;;;;;;16.40;8.50;;;;;;;24.18;62.60;98949.39;108660;1281;22981;-69
2022/08/15 10:36:03;;;;;;;12.40;8.00;;;;;;;24.15;63.28;98958.12;108502;1281;138008;-69
2022/08/15 10:38:47;;;;;;;14.30;8.10;;;;;;;24.12;63.57;98966.49;108673;1281;22536;-69
2022/08/15 10:42:00;;;;;;;8.70;7.40;;;;;;;24.09;63.55;98966.66;108520;1281;138718;-69
2022/08/15 10:44:50;;;;;;;19.40;7.50;;;;;;;24.05;63.83;98968.33;108133;1285;23219;-69
2022/08/15 10:47:22;;;;;;;20.00;7.70;;;;;;;24.02;64.30;98963.46;108028;1287;138768;-69
2022/08/15 10:50:24;;;;;;;13.60;8.10;;;;;;;23.98;64.73;98956.61;108645;1281;23330;-70
2022/08/15 10:53:07;;;;;;;9.70;6.20;;;;;;;23.94;65.26;98952.08;108469;1281;138236;-68
2022/08/15 10:55:34;;;;;;;;;;;;;;;23.90;66.20;98949.89;108774;1281;22595;-68
2022/08/15 10:58:24;;;;;;;13.50;8.00;;;;;;;23.84;66.76;98944.98;108643;1281;124904;-71
2022/08/15 11:01:06;;;;;;;14.60;6.60;;;;;;;23.75;66.80;98924.49;108594;1281;23555;-67
2022/08/15 11:03:58;;;;;;;18.00;6.80;;;;;;;23.66;66.77;98919.34;108678;1280;24043;-68
2022/08/15 11:06:50;;;;;;;16.10;8.00;;;;;;;23.57;67.43;98942.17;108765;1281;22462;-68
2022/08/15 11:09:22;;;;;;;17.70;7.10;;;;;;;23.55;67.88;98948.05;108703;1281;22454;-68
2022/08/15 11:12:00;;;;;;;9.90;6.10;;;;;;;23.55;67.19;98931.68;108702;1281;138144;-67
2022/08/15 11:14:34;;;;;;;10.60;6.70;;;;;;;23.58;67.15;98939.80;108751;1281;22502;-68
2022/08/15 11:17:03;;;;;;;14.10;6.70;;;;;;;23.63;67.21;98944.46;108433;1281;138814;-67
2022/08/15 11:19:36;;;;;;;13.30;6.70;;;;;;;23.69;66.82;98956.13;108726;1274;22587;-67
2022/08/15 11:22:37;;;;;;;10.30;6.60;;;;;;;23.78;66.71;98946.42;109229;1274;138877;-68
2022/08/15 11:25:17;;;;;;;11.70;6.50;;;;;;;23.86;66.58;98943.04;109282;1274;22538;-68
2022/08/15 11:27:46;;;;;;;12.80;7.50;;;;;;;23.94;66.38;98938.05;109134;1274;140630;-67
2022/08/15 11:30:25;;;;;;;10.20;5.90;;;;;;;24.03;65.80;98943.44;109379;1274;24434;-68
2022/08/15 11:33:21;;;;;;;13.40;6.80;;;;;;;24.08;65.15;98951.45;109318;1274;22514;-67
2022/08/15 11:36:24;;;;;;;10.90;6.20;;;;;;;24.11;65.19;98967.56;109246;1274;139243;-68
2022/08/15 11:39:10;;;;;;;10.90;6.80;;;;;;;24.12;65.09;98956.70;108650;1281;22456;-67
2022/08/15 11:41:47;;;;;;;;;;;;;;;24.11;65.35;98957.23;108689;1281;138316;-68
2022/08/15 11:44:25;;;;;;;12.70;6.70;;;;;;;24.07;65.35;98963.29;108802;1281;23765;-68
2022/08/15 11:46:52;;;;;;;14.60;6.90;;;;;;;24.02;65.53;98962.83;108676;1279;138817;-69
2022/08/15 11:49:50;;;;;;;12.80;6.90;;;;;;;23.96;66.25;98956.96;108496;1283;22479;-68
2022/08/15 11:52:23;;;;;;;315.30;272.00;;;;;;;23.87;66.39;98959.13;108461;1283;140285;-67
2022/08/15 11:55:13;;;;;;;20.50;14.80;;;;;;;23.78;67.08;98957.71;108563;1283;22512;-71
2022/08/15 11:57:44;;;;;;;11.50;7.30;;;;;;;23.71;67.23;98960.45;108564;1281;139048;-68
2022/08/15 12:00:28;;;;;;;13.40;7.40;;;;;;;23.63;67.65;98963.30;108607;1283;23329;-69
2022/08/15 12:02:56;;;;;;;13.60;7.20;;;;;;;23.57;68.46;98966.55;108547;1282;23158;-68
2022/08/15 12:05:43;;;;;;;15.70;6.30;;;;;;;23.52;68.65;98973.02;107728;1280;139056;-70
2022/08/15 12:08:32;;;;;;;10.90;6.40;;;;;;;23.48;68.71;98977.09;104658;1281;23733;-68
2022/08/15 12:11:06;;;;;;;11.20;6.80;;;;;;;23.44;68.86;98980.65;104326;1281;138686;-69
2022/08/15 12:13:35;;;;;;;11.30;7.20;;;;;;;23.41;68.99;98984.83;104403;1283;24267;-70
2022/08/15 12:16:02;;;;;;;14.90;7.50;;;;;;;23.38;69.07;98985.08;104844;1277;138929;-69
2022/08/15 12:18:50;;;;;;;14.40;7.40;;;;;;;23.35;69.16;98975.17;104935;1275;22759;-71
2022/08/15 12:21:20;;;;;;;10.30;7.00;;;;;;;23.32;68.87;98973.26;105036;1276;22592;-69
2022/08/15 12:23:58;;;;;;;8.40;7.20;;;;;;;23.31;68.71;98967.00;109166;1275;138778;-69
2022/08/15 12:26:28;;;;;;;9.70;6.90;;;;;;;23.31;68.83;98964.87;109322;1274;22416;-69